Wilson Heron — 9HJW9 — position and weather

sailwx.info

Track history (hours):
 
Tides and Currents Weather Stations Pressure Air Temp Water Temp Dewpoint Dewpoint Depression Visibility Wind Speed Wind Dir Waves Ship Positions

Wilson Heron

Last reported at 2014-Sep-19 11:33 UTC. Time now 2014-Sep-19 11:55 UTC.
Position N 52°24' E 004°47'.

Length 91 m; draft 4 m.

Type: Cargo ship. MMSI: 249075000.

Date/timePositionNaut miles runAvg speedWind from/ knotsBaromVisibWave heightAir tempDewpointWater temp
2014-Sep-19 11:33N 52°24' E 004°47'0 0.0
2014-Sep-19 10:30N 52°24' E 004°47'0 0.0
2014-Sep-19 09:33N 52°24' E 004°47'0 0.0
2014-Sep-19 08:33N 52°24' E 004°47'0 0.0
2014-Sep-19 07:33N 52°24' E 004°47'0 0.0
2014-Sep-19 06:33N 52°24' E 004°47'0 0.0
2014-Sep-19 05:33N 52°24' E 004°47'0 0.0
2014-Sep-19 04:30N 52°24' E 004°47'0 0.0
2014-Sep-19 03:33N 52°24' E 004°47'0 0.0
2014-Sep-19 02:33N 52°24' E 004°47'0 0.0
2014-Sep-19 01:33N 52°24' E 004°47'0 0.0
2014-Sep-19 00:33N 52°24' E 004°47'0 0.0
2014-Sep-18 23:33N 52°24' E 004°47'0 0.0
2014-Sep-18 22:33N 52°24' E 004°47'0 0.0
2014-Sep-18 21:33N 52°24' E 004°47'0 0.2
2014-Sep-18 20:33N 52°24' E 004°47'0 0.0
2014-Sep-18 19:33N 52°24' E 004°47'0 0.0
2014-Sep-18 18:33N 52°24' E 004°47'0 0.0
2014-Sep-18 17:33N 52°24' E 004°47'0 0.0
2014-Sep-18 16:33N 52°24' E 004°47'0 0.0
2014-Sep-18 15:33N 52°24' E 004°47'0 0.0
2014-Sep-18 14:33N 52°24' E 004°47'0 0.0
2014-Sep-18 13:33N 52°24' E 004°47'0 0.0
2014-Sep-18 12:33N 52°24' E 004°47'0 0.0
2014-Sep-18 11:33N 52°24' E 004°47'0 0.0
2014-Sep-18 10:33N 52°24' E 004°47'0 0.0
2014-Sep-18 09:33N 52°24' E 004°47'0 0.0
2014-Sep-18 08:33N 52°24' E 004°47'0 0.0
2014-Sep-18 07:33N 52°24' E 004°47'7 6.6
2014-Sep-18 06:34N 52°28' E 004°38'6 5.7
2014-Sep-18 05:33N 52°28' E 004°28'8 8.4
2014-Sep-18 04:33N 52°29' E 004°15'9 8.6
2014-Sep-18 03:34N 52°28' E 004°01'9 8.8
2014-Sep-18 02:34N 52°25' E 003°47'9 8.7
2014-Sep-18 01:34N 52°20' E 003°35'9 8.9
2014-Sep-18 00:34N 52°14' E 003°24'9 8.9
2014-Sep-17 23:33N 52°09' E 003°13'9 9.3
2014-Sep-17 22:32N 52°02' E 003°02'10 9.8
2014-Sep-17 21:32N 51°55' E 002°50'1110.2
2014-Sep-17 20:29N 51°47' E 002°40'1010.3
2014-Sep-17 19:33N 51°39' E 002°30'1110.6
2014-Sep-17 18:34N 51°31' E 002°20'1111.0
2014-Sep-17 17:33N 51°22' E 002°10'1010.0
2014-Sep-17 16:34N 51°13' E 002°02'10 9.7
2014-Sep-17 15:33N 51°07' E 001°50'1010.1
2014-Sep-17 14:33N 51°00' E 001°38'10 9.6
2014-Sep-17 13:31N 50°52' E 001°29'8 8.3
2014-Sep-17 12:33N 50°45' E 001°24'26 8.8
2014-Sep-17 09:33N 50°27' E 000°53'9 8.9
2014-Sep-17 08:31N 50°25' E 000°39'9 8.8
2014-Sep-17 07:33N 50°23' E 000°27'79 9.5
2014-Sep-16 23:15N 50°01' W 001°32'9 9.4
2014-Sep-16 22:19N 49°59' W 001°45'7 9.3
2014-Sep-16 21:34N 49°57' W 001°56'9 9.1
2014-Sep-16 20:33N 49°55' W 002°09'10 8.4
2014-Sep-16 19:23N 49°52' W 002°24'153 8.1
2014-Sep-16 00:33N 48°10' W 005°17'10 9.8
2014-Sep-15 23:34N 48°02' W 005°09'10 9.6
2014-Sep-15 22:34N 47°57' W 004°57'10 9.9
2014-Sep-15 21:33N 47°52' W 004°44'6711.1
2014-Sep-15 15:32N 47°17' W 003°20'1111.3
2014-Sep-15 14:33N 47°12' W 003°06'  
2014-Sep-13 07:33N 47°18' W 002°07'112 3.5
2014-Sep-11 23:20N 47°49' W 004°47'228 7.7
2014-Sep-10 17:33N 50°25' W 000°34'2712.7
2014-Sep-10 15:23N 50°34' E 000°07'1012.4
2014-Sep-10 14:34N 50°37' E 000°23'1211.5
2014-Sep-10 13:34N 50°42' E 000°39'1010.3
2014-Sep-10 12:33N 50°47' E 000°53'20 9.7
2014-Sep-10 10:32N 50°59' E 001°17'1212.2
2014-Sep-10 09:33N 51°07' E 001°32'1414.4
2014-Sep-10 08:33N 51°16' E 001°49'1211.4
2014-Sep-10 07:31N 51°24' E 002°04'1211.0
2014-Sep-10 06:28N 51°21' E 002°22'1111.9
2014-Sep-10 05:33N 51°23' E 002°39'1010.4
2014-Sep-10 04:33N 51°23' E 002°56'1210.2
2014-Sep-10 03:23N 51°25' E 003°15'810.1
2014-Sep-10 02:34N 51°25' E 003°28'9 8.8
2014-Sep-10 01:33N 51°26' E 003°42'7 7.2
2014-Sep-10 00:33N 51°21' E 003°51'8 7.8
2014-Sep-09 23:34N 51°26' E 003°60'7 6.7
2014-Sep-09 22:33N 51°23' E 004°09'5 5.5
2014-Sep-09 21:33N 51°21' E 004°17'0 0.4
2014-Sep-09 20:33N 51°21' E 004°18'1 0.9
2014-Sep-09 19:33N 51°22' E 004°17'0 0.0
2014-Sep-09 18:29N 51°22' E 004°17'0 0.0
2014-Sep-09 17:17N 51°22' E 004°17'0 0.0
2014-Sep-09 15:14N 51°22' E 004°17'0 0.0
2014-Sep-09 14:26N 51°22' E 004°17'0 0.0
2014-Sep-09 12:32N 51°22' E 004°17'  
Track history (hours):
 
Tides and Currents Weather Stations Pressure Air Temp Water Temp Dewpoint Dewpoint Depression Visibility Wind Speed Wind Dir Waves Ship Positions

Wilson Heron

Last reported at 2014-Sep-19 11:33 UTC. Time now 2014-Sep-19 11:55 UTC.
Position N 52°24' E 004°47'.

Length 91 m; draft 4 m.

Type: Cargo ship. MMSI: 249075000.

Date/timePositionNaut miles runAvg speedWind from/ knotsBaromVisibWave heightAir tempDewpointWater temp
2014-Sep-19 11:33N 52°24' E 004°47'0 0.0
2014-Sep-19 10:30N 52°24' E 004°47'0 0.0
2014-Sep-19 09:33N 52°24' E 004°47'0 0.0
2014-Sep-19 08:33N 52°24' E 004°47'0 0.0
2014-Sep-19 07:33N 52°24' E 004°47'0 0.0
2014-Sep-19 06:33N 52°24' E 004°47'0 0.0
2014-Sep-19 05:33N 52°24' E 004°47'0 0.0
2014-Sep-19 04:30N 52°24' E 004°47'0 0.0
2014-Sep-19 03:33N 52°24' E 004°47'0 0.0
2014-Sep-19 02:33N 52°24' E 004°47'0 0.0
2014-Sep-19 01:33N 52°24' E 004°47'0 0.0
2014-Sep-19 00:33N 52°24' E 004°47'0 0.0
2014-Sep-18 23:33N 52°24' E 004°47'0 0.0
2014-Sep-18 22:33N 52°24' E 004°47'0 0.0
2014-Sep-18 21:33N 52°24' E 004°47'0 0.2
2014-Sep-18 20:33N 52°24' E 004°47'0 0.0
2014-Sep-18 19:33N 52°24' E 004°47'0 0.0
2014-Sep-18 18:33N 52°24' E 004°47'0 0.0
2014-Sep-18 17:33N 52°24' E 004°47'0 0.0
2014-Sep-18 16:33N 52°24' E 004°47'0 0.0
2014-Sep-18 15:33N 52°24' E 004°47'0 0.0
2014-Sep-18 14:33N 52°24' E 004°47'0 0.0
2014-Sep-18 13:33N 52°24' E 004°47'0 0.0
2014-Sep-18 12:33N 52°24' E 004°47'0 0.0
2014-Sep-18 11:33N 52°24' E 004°47'0 0.0
2014-Sep-18 10:33N 52°24' E 004°47'0 0.0
2014-Sep-18 09:33N 52°24' E 004°47'0 0.0
2014-Sep-18 08:33N 52°24' E 004°47'0 0.0
2014-Sep-18 07:33N 52°24' E 004°47'7 6.6
2014-Sep-18 06:34N 52°28' E 004°38'6 5.7
2014-Sep-18 05:33N 52°28' E 004°28'8 8.4
2014-Sep-18 04:33N 52°29' E 004°15'9 8.6
2014-Sep-18 03:34N 52°28' E 004°01'9 8.8
2014-Sep-18 02:34N 52°25' E 003°47'9 8.7
2014-Sep-18 01:34N 52°20' E 003°35'9 8.9
2014-Sep-18 00:34N 52°14' E 003°24'9 8.9
2014-Sep-17 23:33N 52°09' E 003°13'9 9.3
2014-Sep-17 22:32N 52°02' E 003°02'10 9.8
2014-Sep-17 21:32N 51°55' E 002°50'1110.2
2014-Sep-17 20:29N 51°47' E 002°40'1010.3
2014-Sep-17 19:33N 51°39' E 002°30'1110.6
2014-Sep-17 18:34N 51°31' E 002°20'1111.0
2014-Sep-17 17:33N 51°22' E 002°10'1010.0
2014-Sep-17 16:34N 51°13' E 002°02'10 9.7
2014-Sep-17 15:33N 51°07' E 001°50'1010.1
2014-Sep-17 14:33N 51°00' E 001°38'10 9.6
2014-Sep-17 13:31N 50°52' E 001°29'8 8.3
2014-Sep-17 12:33N 50°45' E 001°24'26 8.8
2014-Sep-17 09:33N 50°27' E 000°53'9 8.9
2014-Sep-17 08:31N 50°25' E 000°39'9 8.8
2014-Sep-17 07:33N 50°23' E 000°27'79 9.5
2014-Sep-16 23:15N 50°01' W 001°32'9 9.4
2014-Sep-16 22:19N 49°59' W 001°45'7 9.3
2014-Sep-16 21:34N 49°57' W 001°56'9 9.1
2014-Sep-16 20:33N 49°55' W 002°09'10 8.4
2014-Sep-16 19:23N 49°52' W 002°24'153 8.1
2014-Sep-16 00:33N 48°10' W 005°17'10 9.8
2014-Sep-15 23:34N 48°02' W 005°09'10 9.6
2014-Sep-15 22:34N 47°57' W 004°57'10 9.9
2014-Sep-15 21:33N 47°52' W 004°44'6711.1
2014-Sep-15 15:32N 47°17' W 003°20'1111.3
2014-Sep-15 14:33N 47°12' W 003°06'  
2014-Sep-13 07:33N 47°18' W 002°07'112 3.5
2014-Sep-11 23:20N 47°49' W 004°47'228 7.7
2014-Sep-10 17:33N 50°25' W 000°34'2712.7
2014-Sep-10 15:23N 50°34' E 000°07'1012.4
2014-Sep-10 14:34N 50°37' E 000°23'1211.5
2014-Sep-10 13:34N 50°42' E 000°39'1010.3
2014-Sep-10 12:33N 50°47' E 000°53'20 9.7
2014-Sep-10 10:32N 50°59' E 001°17'1212.2
2014-Sep-10 09:33N 51°07' E 001°32'1414.4
2014-Sep-10 08:33N 51°16' E 001°49'1211.4
2014-Sep-10 07:31N 51°24' E 002°04'1211.0
2014-Sep-10 06:28N 51°21' E 002°22'1111.9
2014-Sep-10 05:33N 51°23' E 002°39'1010.4
2014-Sep-10 04:33N 51°23' E 002°56'1210.2
2014-Sep-10 03:23N 51°25' E 003°15'810.1
2014-Sep-10 02:34N 51°25' E 003°28'9 8.8
2014-Sep-10 01:33N 51°26' E 003°42'7 7.2
2014-Sep-10 00:33N 51°21' E 003°51'8 7.8
2014-Sep-09 23:34N 51°26' E 003°60'7 6.7
2014-Sep-09 22:33N 51°23' E 004°09'5 5.5
2014-Sep-09 21:33N 51°21' E 004°17'0 0.4
2014-Sep-09 20:33N 51°21' E 004°18'1 0.9
2014-Sep-09 19:33N 51°22' E 004°17'0 0.0
2014-Sep-09 18:29N 51°22' E 004°17'0 0.0
2014-Sep-09 17:17N 51°22' E 004°17'0 0.0
2014-Sep-09 15:14N 51°22' E 004°17'0 0.0
2014-Sep-09 14:26N 51°22' E 004°17'0 0.0
2014-Sep-09 12:32N 51°22' E 004°17'  

Dump ship's entire track history